createdAt,value
2022-07-29T00:00:59.823Z,19.64
2022-07-29T00:01:59.820Z,19.67
2022-07-29T00:02:59.893Z,19.67
2022-07-29T00:03:59.872Z,19.70
2022-07-29T00:04:59.824Z,19.62
2022-07-29T00:06:00.837Z,19.70
2022-07-29T00:06:59.823Z,19.63
2022-07-29T00:07:59.818Z,19.59
2022-07-29T00:08:59.817Z,19.52
2022-07-29T00:09:59.816Z,19.58
2022-07-29T00:10:59.817Z,19.59
2022-07-29T00:11:59.816Z,19.55
2022-07-29T00:12:59.817Z,19.58
2022-07-29T00:13:59.814Z,19.62
2022-07-29T00:14:59.814Z,19.56
2022-07-29T00:16:04.909Z,19.62
2022-07-29T00:16:59.816Z,19.56
2022-07-29T00:17:59.815Z,19.56
2022-07-29T00:19:02.276Z,19.56
2022-07-29T00:19:59.810Z,19.59
2022-07-29T00:20:59.816Z,19.48
2022-07-29T00:21:59.817Z,19.56
2022-07-29T00:22:59.813Z,19.55
2022-07-29T00:23:59.810Z,19.58
2022-07-29T00:24:59.815Z,19.56
2022-07-29T00:25:59.809Z,19.55
2022-07-29T00:26:59.809Z,19.56
2022-07-29T00:27:59.807Z,19.54
2022-07-29T00:29:31.115Z,19.55
2022-07-29T00:29:59.808Z,19.56
2022-07-29T00:30:59.809Z,19.55
2022-07-29T00:31:59.845Z,19.51
2022-07-29T00:32:59.812Z,19.48
2022-07-29T00:33:59.806Z,19.49
2022-07-29T00:34:59.808Z,19.47
2022-07-29T00:35:59.810Z,19.54
2022-07-29T00:36:59.809Z,19.48
2022-07-29T00:37:59.807Z,19.49
2022-07-29T00:38:59.806Z,19.47
2022-07-29T00:39:59.809Z,19.49
2022-07-29T00:40:59.806Z,19.45
2022-07-29T00:41:59.805Z,19.41
2022-07-29T00:42:59.807Z,19.44
2022-07-29T00:43:59.803Z,19.45
2022-07-29T00:44:59.806Z,19.40
2022-07-29T00:45:59.802Z,19.44
2022-07-29T00:46:59.830Z,19.48
2022-07-29T00:47:59.806Z,19.41
2022-07-29T00:48:59.837Z,19.40
2022-07-29T00:49:59.801Z,19.45
2022-07-29T00:50:59.799Z,19.36
2022-07-29T00:51:59.799Z,19.44
2022-07-29T00:52:59.800Z,19.40
2022-07-29T00:53:59.798Z,19.41
2022-07-29T00:55:02.622Z,19.39
2022-07-29T00:55:59.798Z,19.41
2022-07-29T00:56:59.803Z,19.45
2022-07-29T00:57:59.798Z,19.39
2022-07-29T00:58:59.805Z,19.44
2022-07-29T00:59:59.805Z,19.37
2022-07-29T01:00:59.879Z,19.51
2022-07-29T01:01:59.839Z,19.36
2022-07-29T01:02:59.799Z,19.27
2022-07-29T01:03:59.794Z,19.44
2022-07-29T01:04:59.796Z,19.45
2022-07-29T01:05:59.796Z,19.40
2022-07-29T01:06:59.792Z,19.36
2022-07-29T01:07:59.795Z,19.40
2022-07-29T01:08:59.796Z,19.36
2022-07-29T01:09:59.797Z,19.47
2022-07-29T01:10:59.791Z,19.41
2022-07-29T01:11:59.798Z,19.47
2022-07-29T01:12:59.792Z,19.36
2022-07-29T01:13:59.793Z,19.40
2022-07-29T01:14:59.794Z,19.49
2022-07-29T01:15:59.826Z,19.45
2022-07-29T01:16:59.789Z,19.45
2022-07-29T01:17:59.789Z,19.41
2022-07-29T01:18:59.787Z,19.41
2022-07-29T01:19:59.788Z,19.44
2022-07-29T01:20:59.788Z,19.44
2022-07-29T01:21:59.787Z,19.36
2022-07-29T01:22:59.787Z,19.47
2022-07-29T01:23:59.787Z,19.51
2022-07-29T01:24:59.787Z,19.44
2022-07-29T01:25:59.783Z,19.34
2022-07-29T01:26:59.788Z,19.45
2022-07-29T01:27:59.785Z,19.45
2022-07-29T01:28:59.786Z,19.39
2022-07-29T01:29:59.790Z,19.30
2022-07-29T01:30:59.859Z,19.40
2022-07-29T01:32:01.095Z,19.47
2022-07-29T01:32:59.794Z,19.44
2022-07-29T01:33:59.787Z,19.39
2022-07-29T01:34:59.783Z,19.41
2022-07-29T01:35:59.783Z,19.36
2022-07-29T01:36:59.785Z,19.37
2022-07-29T01:37:59.780Z,19.36
2022-07-29T01:38:59.782Z,19.36
2022-07-29T01:39:59.778Z,19.27
2022-07-29T01:40:59.782Z,19.21
2022-07-29T01:41:59.778Z,19.31
2022-07-29T01:42:59.778Z,19.34
2022-07-29T01:43:59.778Z,19.18
2022-07-29T01:44:59.780Z,19.18
2022-07-29T01:45:59.786Z,19.16
2022-07-29T01:46:59.858Z,19.27
2022-07-29T01:47:59.779Z,19.19
2022-07-29T01:48:59.810Z,19.29
2022-07-29T01:49:59.777Z,19.27
2022-07-29T01:50:59.777Z,19.27
2022-07-29T01:51:59.794Z,19.29
2022-07-29T01:52:59.773Z,19.18
2022-07-29T01:53:59.774Z,19.16
2022-07-29T01:54:59.771Z,19.14
2022-07-29T01:55:59.775Z,19.14
2022-07-29T01:56:59.773Z,19.00
2022-07-29T01:57:59.774Z,19.14
2022-07-29T01:58:59.767Z,19.04
2022-07-29T01:59:59.769Z,18.98
2022-07-29T02:00:59.768Z,18.92
2022-07-29T02:01:59.849Z,18.89
2022-07-29T02:02:59.774Z,19.00
2022-07-29T02:03:59.771Z,18.99
2022-07-29T02:04:59.787Z,18.95
2022-07-29T02:05:59.768Z,18.90
2022-07-29T02:06:59.767Z,18.84
2022-07-29T02:07:59.765Z,18.70
2022-07-29T02:08:59.763Z,18.66
2022-07-29T02:09:59.766Z,18.63
2022-07-29T02:10:59.769Z,18.56
2022-07-29T02:11:59.765Z,18.53
2022-07-29T02:12:59.763Z,18.47
2022-07-29T02:13:59.762Z,18.41
2022-07-29T02:14:59.761Z,18.37
2022-07-29T02:15:59.802Z,18.34
2022-07-29T02:16:59.759Z,18.29
2022-07-29T02:18:00.266Z,18.29
2022-07-29T02:18:59.757Z,18.19
2022-07-29T02:19:59.757Z,18.29
2022-07-29T02:20:59.759Z,18.33
2022-07-29T02:21:59.764Z,18.29
2022-07-29T02:22:59.760Z,18.35
2022-07-29T02:23:59.758Z,18.40
2022-07-29T02:24:59.755Z,18.41
2022-07-29T02:25:59.753Z,18.38
2022-07-29T02:26:59.750Z,18.33
2022-07-29T02:27:59.753Z,18.29
2022-07-29T02:28:59.749Z,18.31
2022-07-29T02:29:59.752Z,18.28
2022-07-29T02:30:59.838Z,18.29
2022-07-29T02:31:59.748Z,18.34
2022-07-29T02:32:59.747Z,18.19
2022-07-29T02:33:59.748Z,18.13
2022-07-29T02:34:59.743Z,18.13
2022-07-29T02:35:59.749Z,18.11
2022-07-29T02:36:59.743Z,18.07
2022-07-29T02:37:59.744Z,18.13
2022-07-29T02:38:59.742Z,18.05
2022-07-29T02:39:59.744Z,18.07
2022-07-29T02:40:59.740Z,18.00
2022-07-29T02:41:59.743Z,18.04
2022-07-29T02:42:59.738Z,18.10
2022-07-29T02:43:59.739Z,18.11
2022-07-29T02:44:59.744Z,18.08
2022-07-29T02:45:59.792Z,18.05
2022-07-29T02:46:59.848Z,18.08
2022-07-29T02:47:59.736Z,18.05
2022-07-29T02:48:59.842Z,18.01
2022-07-29T02:50:00.594Z,17.92
2022-07-29T02:50:59.731Z,17.95
2022-07-29T02:51:59.736Z,18.03
2022-07-29T02:52:59.732Z,17.94
2022-07-29T02:53:59.735Z,18.07
2022-07-29T02:54:59.725Z,18.00
2022-07-29T02:55:59.726Z,18.07
2022-07-29T02:56:59.729Z,18.10
2022-07-29T02:57:59.728Z,18.08
2022-07-29T02:58:59.729Z,18.10
2022-07-29T02:59:59.732Z,18.13
2022-07-29T03:00:59.737Z,18.07
2022-07-29T03:01:59.816Z,18.07
2022-07-29T03:02:59.718Z,18.19
2022-07-29T03:03:59.721Z,18.23
2022-07-29T03:04:59.845Z,18.19
2022-07-29T03:05:59.719Z,18.37
2022-07-29T03:06:59.735Z,18.37
2022-07-29T03:07:59.716Z,18.33
2022-07-29T03:08:59.720Z,18.33
2022-07-29T03:09:59.721Z,18.31
2022-07-29T03:10:59.712Z,18.26
2022-07-29T03:11:59.714Z,18.20
2022-07-29T03:12:59.711Z,18.26
2022-07-29T03:13:59.711Z,18.13
2022-07-29T03:14:59.714Z,18.16
2022-07-29T03:15:59.759Z,18.16
2022-07-29T03:16:59.725Z,18.18
2022-07-29T03:17:59.705Z,18.13
2022-07-29T03:18:59.706Z,18.18
2022-07-29T03:19:59.709Z,18.11
2022-07-29T03:20:59.701Z,18.07
2022-07-29T03:21:59.705Z,18.10
2022-07-29T03:22:59.698Z,18.11
2022-07-29T03:23:59.699Z,18.10
2022-07-29T03:24:59.708Z,18.10
2022-07-29T03:25:59.701Z,18.04
2022-07-29T03:26:59.705Z,18.05
2022-07-29T03:27:59.695Z,17.94
2022-07-29T03:28:59.712Z,17.92
2022-07-29T03:29:59.693Z,18.00
2022-07-29T03:30:59.729Z,17.90
2022-07-29T03:31:59.692Z,17.97
2022-07-29T03:32:59.686Z,18.01
2022-07-29T03:33:59.687Z,17.98
2022-07-29T03:34:59.684Z,17.95
2022-07-29T03:35:59.685Z,17.86
2022-07-29T03:36:59.684Z,17.79
2022-07-29T03:37:59.681Z,17.74
2022-07-29T03:38:59.679Z,17.64
2022-07-29T03:39:59.679Z,17.57
2022-07-29T03:40:59.682Z,17.63
2022-07-29T03:41:59.678Z,17.56
2022-07-29T03:42:59.681Z,17.56
2022-07-29T03:43:59.676Z,17.52
2022-07-29T03:44:59.672Z,17.52
2022-07-29T03:45:59.729Z,17.56
2022-07-29T03:46:59.672Z,17.49
2022-07-29T03:48:00.964Z,17.52
2022-07-29T03:48:59.741Z,17.52
2022-07-29T03:49:59.667Z,17.46
2022-07-29T03:50:59.662Z,17.44
2022-07-29T03:51:59.666Z,17.49
2022-07-29T03:52:59.659Z,17.57
2022-07-29T03:53:59.664Z,17.51
2022-07-29T03:54:59.663Z,17.51
2022-07-29T03:55:59.769Z,17.46
2022-07-29T03:56:59.661Z,17.41
2022-07-29T03:57:59.655Z,17.38
2022-07-29T03:58:59.740Z,17.33
2022-07-29T03:59:59.654Z,17.44
2022-07-29T04:00:59.660Z,17.41
2022-07-29T04:01:59.776Z,17.39
2022-07-29T04:02:59.728Z,17.24
2022-07-29T04:03:59.707Z,17.24
2022-07-29T04:04:59.638Z,17.23
2022-07-29T04:05:59.636Z,17.26
2022-07-29T04:06:59.634Z,17.20
2022-07-29T04:07:59.638Z,17.14
2022-07-29T04:08:59.633Z,17.16
2022-07-29T04:09:59.634Z,17.22
2022-07-29T04:10:59.626Z,17.14
2022-07-29T04:12:03.542Z,17.15
2022-07-29T04:12:59.624Z,17.12
2022-07-29T04:13:59.633Z,17.20
2022-07-29T04:14:59.618Z,17.14
2022-07-29T04:15:59.666Z,17.22
2022-07-29T04:16:59.613Z,17.14
2022-07-29T04:17:59.661Z,17.19
2022-07-29T04:19:59.625Z,17.16
2022-07-29T04:20:59.606Z,17.15
2022-07-29T04:21:59.617Z,17.19
2022-07-29T04:22:59.802Z,17.22
2022-07-29T04:23:59.598Z,17.16
2022-07-29T04:25:03.774Z,17.19
2022-07-29T04:25:59.594Z,17.09
2022-07-29T04:26:59.590Z,17.16
2022-07-29T04:27:59.592Z,17.11
2022-07-29T04:28:59.586Z,17.11
2022-07-29T04:29:59.589Z,17.12
2022-07-29T04:30:59.693Z,17.12
2022-07-29T04:31:59.583Z,17.14
2022-07-29T04:32:59.588Z,17.15
2022-07-29T04:33:59.578Z,17.14
2022-07-29T04:34:59.573Z,17.08
2022-07-29T04:35:59.573Z,17.19
2022-07-29T04:36:59.568Z,17.14
2022-07-29T04:37:59.566Z,17.19
2022-07-29T04:38:59.562Z,17.14
2022-07-29T04:39:59.562Z,17.14
2022-07-29T04:40:59.609Z,17.11
2022-07-29T04:41:59.557Z,17.19
2022-07-29T04:42:59.550Z,17.14
2022-07-29T04:43:59.551Z,17.14
2022-07-29T04:44:59.548Z,17.15
2022-07-29T04:45:59.660Z,17.16
2022-07-29T04:46:59.542Z,17.06
2022-07-29T04:47:59.548Z,17.06
2022-07-29T04:48:59.613Z,17.04
2022-07-29T04:49:59.540Z,17.04
2022-07-29T04:50:59.684Z,17.01
2022-07-29T04:51:59.532Z,17.12
2022-07-29T04:52:59.529Z,17.08
2022-07-29T04:53:59.527Z,17.11
2022-07-29T04:54:59.523Z,17.08
2022-07-29T04:55:59.521Z,16.97
2022-07-29T04:56:59.523Z,17.12
2022-07-29T04:57:59.522Z,17.12
2022-07-29T04:58:59.514Z,17.09
2022-07-29T04:59:59.519Z,17.08
2022-07-29T05:00:59.508Z,17.15
2022-07-29T05:01:59.594Z,17.01
2022-07-29T05:02:59.574Z,17.06
2022-07-29T05:04:00.677Z,17.16
2022-07-29T05:04:59.501Z,17.02
2022-07-29T05:05:59.505Z,17.12
2022-07-29T05:06:59.500Z,17.15
2022-07-29T05:07:59.494Z,17.11
2022-07-29T05:08:59.495Z,17.11
2022-07-29T05:09:59.487Z,17.14
2022-07-29T05:10:59.483Z,17.11
2022-07-29T05:11:59.487Z,17.19
2022-07-29T05:12:59.483Z,17.09
2022-07-29T05:13:59.477Z,17.14
2022-07-29T05:14:59.476Z,17.11
2022-07-29T05:15:59.544Z,17.23
2022-07-29T05:16:59.492Z,17.19
2022-07-29T05:17:59.470Z,17.22
2022-07-29T05:18:59.468Z,17.20
2022-07-29T05:19:59.465Z,17.31
2022-07-29T05:20:59.462Z,17.23
2022-07-29T05:21:59.460Z,17.22
2022-07-29T05:22:59.663Z,17.24
2022-07-29T05:23:59.455Z,17.24
2022-07-29T05:24:59.450Z,17.29
2022-07-29T05:25:59.451Z,17.29
2022-07-29T05:26:59.447Z,17.26
2022-07-29T05:27:59.447Z,17.30
2022-07-29T05:28:59.443Z,17.39
2022-07-29T05:29:59.438Z,17.31
2022-07-29T05:30:59.498Z,17.39
2022-07-29T05:31:59.442Z,17.38
2022-07-29T05:32:59.434Z,17.39
2022-07-29T05:33:59.434Z,17.36
2022-07-29T05:34:59.426Z,17.39
2022-07-29T05:36:00.814Z,17.51
2022-07-29T05:36:59.422Z,17.51
2022-07-29T05:37:59.420Z,17.51
2022-07-29T05:38:59.418Z,17.56
2022-07-29T05:39:59.421Z,17.51
2022-07-29T05:40:59.414Z,17.45
2022-07-29T05:41:59.413Z,17.60
2022-07-29T05:42:59.409Z,17.60
2022-07-29T05:43:59.411Z,17.57
2022-07-29T05:44:59.407Z,17.60
2022-07-29T05:45:59.554Z,17.56
2022-07-29T05:46:59.412Z,17.60
2022-07-29T05:47:59.400Z,17.52
2022-07-29T05:48:59.468Z,17.56
2022-07-29T05:49:59.402Z,17.60
2022-07-29T05:50:59.393Z,17.51
2022-07-29T05:51:59.394Z,17.64
2022-07-29T05:52:59.397Z,17.64
2022-07-29T05:53:59.389Z,17.60
2022-07-29T05:54:59.387Z,17.68
2022-07-29T05:55:59.400Z,17.74
2022-07-29T05:56:59.383Z,17.74
2022-07-29T05:57:59.384Z,17.71
2022-07-29T05:58:59.377Z,17.74
2022-07-29T05:59:59.381Z,17.87
2022-07-29T06:00:59.462Z,17.85
2022-07-29T06:01:59.426Z,17.80
2022-07-29T06:02:59.382Z,17.82
2022-07-29T06:03:59.450Z,17.89
2022-07-29T06:04:59.416Z,17.90
2022-07-29T06:05:59.370Z,17.92
2022-07-29T06:06:59.366Z,17.98
2022-07-29T06:07:59.361Z,17.98
2022-07-29T06:08:59.375Z,18.01
2022-07-29T06:09:59.359Z,18.04
2022-07-29T06:10:59.361Z,18.01
2022-07-29T06:11:59.355Z,18.05
2022-07-29T06:12:59.360Z,18.05
2022-07-29T06:13:59.357Z,18.08
2022-07-29T06:14:59.351Z,18.13
2022-07-29T06:15:59.483Z,18.03
2022-07-29T06:16:59.348Z,18.10
2022-07-29T06:18:01.273Z,18.10
2022-07-29T06:18:59.342Z,18.11
2022-07-29T06:19:59.341Z,18.16
2022-07-29T06:20:59.342Z,18.18
2022-07-29T06:21:59.342Z,18.20
2022-07-29T06:22:59.750Z,18.20
2022-07-29T06:23:59.338Z,18.33
2022-07-29T06:24:59.338Z,18.22
2022-07-29T06:25:59.333Z,18.31
2022-07-29T06:26:59.330Z,18.29
2022-07-29T06:27:59.330Z,18.28
2022-07-29T06:28:59.336Z,18.29
2022-07-29T06:29:59.326Z,18.29
2022-07-29T06:30:59.420Z,18.29
2022-07-29T06:31:59.323Z,18.29
2022-07-29T06:32:59.338Z,18.29
2022-07-29T06:33:59.339Z,18.23
2022-07-29T06:35:31.928Z,18.35
2022-07-29T06:35:59.320Z,18.29
2022-07-29T06:36:59.318Z,18.23
2022-07-29T06:37:59.828Z,18.20
2022-07-29T06:38:59.316Z,18.23
2022-07-29T06:39:59.723Z,18.23
2022-07-29T06:40:59.312Z,18.22
2022-07-29T06:41:59.315Z,18.28
2022-07-29T06:42:59.308Z,18.34
2022-07-29T06:43:59.310Z,18.29
2022-07-29T06:44:59.310Z,18.33
2022-07-29T06:45:59.339Z,18.40
2022-07-29T06:46:59.308Z,18.45
2022-07-29T06:47:59.301Z,18.41
2022-07-29T06:48:59.379Z,18.37
2022-07-29T06:49:59.300Z,18.38
2022-07-29T06:50:59.298Z,18.33
2022-07-29T06:51:59.295Z,18.37
2022-07-29T06:52:59.299Z,18.33
2022-07-29T06:54:02.012Z,18.23
2022-07-29T06:54:59.300Z,18.31
2022-07-29T06:55:59.297Z,18.35
2022-07-29T06:56:59.296Z,18.33
2022-07-29T06:57:59.290Z,18.29
2022-07-29T06:58:59.290Z,18.44
2022-07-29T06:59:59.287Z,18.41
2022-07-29T07:00:59.396Z,18.45
2022-07-29T07:01:59.342Z,18.45
2022-07-29T07:02:59.287Z,18.41
2022-07-29T07:03:59.281Z,18.43
2022-07-29T07:04:59.282Z,18.50
2022-07-29T07:05:59.279Z,18.45
2022-07-29T07:06:59.283Z,18.53
2022-07-29T07:07:59.277Z,18.43
2022-07-29T07:08:59.280Z,18.41
2022-07-29T07:09:59.279Z,18.45
2022-07-29T07:10:59.277Z,18.50
2022-07-29T07:11:59.273Z,18.53
2022-07-29T07:12:59.272Z,18.60
2022-07-29T07:14:03.105Z,18.58
2022-07-29T07:14:59.274Z,18.55
2022-07-29T07:15:59.287Z,18.66
2022-07-29T07:16:59.369Z,18.60
2022-07-29T07:17:59.326Z,18.58
2022-07-29T07:18:59.274Z,18.62
2022-07-29T07:19:59.263Z,18.58
2022-07-29T07:20:59.275Z,18.58
2022-07-29T07:21:59.281Z,18.62
2022-07-29T07:22:59.711Z,18.59
2022-07-29T07:23:59.272Z,18.55
2022-07-29T07:24:59.275Z,18.56
2022-07-29T07:25:59.260Z,18.58
2022-07-29T07:26:59.258Z,18.59
2022-07-29T07:27:59.262Z,18.55
2022-07-29T07:28:59.255Z,18.56
2022-07-29T07:29:59.256Z,18.53
2022-07-29T07:30:59.253Z,18.56
2022-07-29T07:32:01.055Z,18.65
2022-07-29T07:32:59.249Z,18.59
2022-07-29T07:33:59.252Z,18.55
2022-07-29T07:34:59.251Z,18.68
2022-07-29T07:35:59.246Z,18.63
2022-07-29T07:36:59.267Z,18.70
2022-07-29T07:37:59.249Z,18.70
2022-07-29T07:38:59.241Z,18.60
2022-07-29T07:39:59.242Z,18.62
2022-07-29T07:40:59.240Z,18.49
2022-07-29T07:41:59.241Z,18.37
2022-07-29T07:42:59.241Z,18.23
2022-07-29T07:43:59.241Z,18.23
2022-07-29T07:45:13.117Z,18.33
2022-07-29T07:45:59.373Z,18.19
2022-07-29T07:46:59.236Z,18.19
2022-07-29T07:47:59.234Z,18.11
2022-07-29T07:48:59.325Z,17.95
2022-07-29T07:49:59.229Z,18.01
2022-07-29T07:50:59.228Z,17.89
2022-07-29T07:51:59.230Z,17.90
2022-07-29T07:52:59.229Z,17.86
2022-07-29T07:53:59.227Z,17.92
2022-07-29T07:54:59.226Z,17.80
2022-07-29T07:56:14.678Z,17.68
2022-07-29T07:56:59.223Z,17.57
2022-07-29T07:57:59.308Z,17.63
2022-07-29T07:58:59.221Z,17.51
2022-07-29T07:59:59.236Z,17.49
2022-07-29T08:00:59.280Z,17.48
2022-07-29T08:01:59.355Z,17.54
2022-07-29T08:02:59.239Z,17.59
2022-07-29T08:03:59.214Z,17.52
2022-07-29T08:04:59.214Z,17.60
2022-07-29T08:05:59.209Z,17.41
2022-07-29T08:06:59.218Z,17.49
2022-07-29T08:07:59.211Z,17.39
2022-07-29T08:09:19.550Z,17.39
2022-07-29T08:09:59.206Z,17.41
2022-07-29T08:10:59.202Z,17.51
2022-07-29T08:11:59.201Z,17.57
2022-07-29T08:12:59.201Z,17.51
2022-07-29T08:13:59.198Z,17.51
2022-07-29T08:14:59.198Z,17.64
2022-07-29T08:15:59.281Z,17.60
2022-07-29T08:16:59.265Z,17.68
2022-07-29T08:17:59.193Z,17.78
2022-07-29T08:18:59.196Z,17.82
2022-07-29T08:19:59.191Z,17.79
2022-07-29T08:20:59.193Z,17.85
2022-07-29T08:21:59.190Z,17.70
2022-07-29T08:22:59.390Z,17.59
2022-07-29T08:24:02.929Z,17.52
2022-07-29T08:24:59.188Z,17.51
2022-07-29T08:25:59.184Z,17.36
2022-07-29T08:26:59.183Z,17.34
2022-07-29T08:27:59.179Z,17.27
2022-07-29T08:28:59.180Z,17.22
2022-07-29T08:29:59.178Z,17.14
2022-07-29T08:30:59.177Z,17.12
2022-07-29T08:31:59.182Z,17.11
2022-07-29T08:32:59.223Z,17.14
2022-07-29T08:33:59.172Z,17.11
2022-07-29T08:34:59.172Z,17.26
2022-07-29T08:35:59.168Z,17.22
2022-07-29T08:36:59.179Z,17.24
2022-07-29T08:37:59.164Z,17.30
2022-07-29T08:38:59.165Z,17.33
2022-07-29T08:39:59.163Z,17.38
2022-07-29T08:40:59.162Z,17.39
2022-07-29T08:41:59.332Z,17.42
2022-07-29T08:42:59.159Z,17.34
2022-07-29T08:43:59.155Z,17.38
2022-07-29T08:44:59.155Z,17.46
2022-07-29T08:45:59.308Z,17.59
2022-07-29T08:46:59.151Z,17.54
2022-07-29T08:47:59.172Z,17.49
2022-07-29T08:48:59.215Z,17.60
2022-07-29T08:49:59.187Z,17.64
2022-07-29T08:50:59.220Z,17.63
2022-07-29T08:51:59.564Z,17.59
2022-07-29T08:53:00.065Z,17.59
2022-07-29T08:53:59.141Z,17.57
2022-07-29T08:54:59.141Z,17.60
2022-07-29T08:55:59.139Z,17.60
2022-07-29T08:56:59.157Z,17.51
2022-07-29T08:57:59.135Z,17.59
2022-07-29T08:58:59.134Z,17.51
2022-07-29T09:00:01.522Z,17.52
2022-07-29T09:00:59.145Z,17.46
2022-07-29T09:01:59.527Z,17.39
2022-07-29T09:02:59.129Z,17.42
2022-07-29T09:03:59.217Z,17.49
2022-07-29T09:04:59.130Z,17.51
2022-07-29T09:05:59.124Z,17.38
2022-07-29T09:06:59.122Z,17.44
2022-07-29T09:07:59.127Z,17.39
2022-07-29T09:08:59.121Z,17.36
2022-07-29T09:09:59.118Z,17.34
2022-07-29T09:10:59.138Z,17.30
2022-07-29T09:11:59.118Z,17.38
2022-07-29T09:12:59.115Z,17.41
2022-07-29T09:13:59.111Z,17.33
2022-07-29T09:14:59.113Z,17.38
2022-07-29T09:15:59.140Z,17.36
2022-07-29T09:16:59.214Z,17.45
2022-07-29T09:17:59.108Z,17.49
2022-07-29T09:18:59.111Z,17.52
2022-07-29T09:19:59.107Z,17.63
2022-07-29T09:20:59.102Z,17.49
2022-07-29T09:21:59.102Z,17.63
2022-07-29T09:22:59.551Z,17.65
2022-07-29T09:23:59.097Z,17.71
2022-07-29T09:24:59.109Z,17.76
2022-07-29T09:25:59.099Z,17.80
2022-07-29T09:26:59.099Z,17.78
2022-07-29T09:27:59.092Z,17.83
2022-07-29T09:28:59.092Z,17.90
2022-07-29T09:29:59.095Z,17.83
2022-07-29T09:30:59.087Z,17.90
2022-07-29T09:31:59.175Z,17.95
2022-07-29T09:32:59.102Z,17.95
2022-07-29T09:33:59.082Z,17.98
2022-07-29T09:34:59.084Z,18.00
2022-07-29T09:35:59.277Z,17.95
2022-07-29T09:36:59.194Z,17.97
2022-07-29T09:37:59.106Z,17.98
2022-07-29T09:38:59.080Z,17.94
2022-07-29T09:39:59.075Z,18.13
2022-07-29T09:40:59.882Z,17.98
2022-07-29T09:41:59.077Z,18.11
2022-07-29T09:42:59.074Z,18.10
2022-07-29T09:43:59.069Z,18.05
2022-07-29T09:44:59.068Z,18.07
2022-07-29T09:45:59.067Z,18.03
2022-07-29T09:46:59.312Z,18.10
2022-07-29T09:47:59.066Z,18.18
2022-07-29T09:48:59.083Z,18.15
2022-07-29T09:49:59.157Z,18.08
2022-07-29T09:50:59.067Z,18.10
2022-07-29T09:51:59.066Z,18.10
2022-07-29T09:52:59.060Z,18.07
2022-07-29T09:53:59.062Z,18.10
2022-07-29T09:54:59.053Z,18.10
2022-07-29T09:55:59.056Z,18.10
2022-07-29T09:56:59.065Z,18.15
2022-07-29T09:57:59.051Z,18.11
2022-07-29T09:58:59.051Z,18.11
2022-07-29T09:59:59.048Z,18.11
2022-07-29T10:00:59.096Z,18.16
2022-07-29T10:01:59.307Z,18.10
2022-07-29T10:02:59.131Z,18.11
2022-07-29T10:03:59.043Z,18.07
2022-07-29T10:04:59.044Z,18.05
2022-07-29T10:05:59.041Z,18.13
2022-07-29T10:07:04.218Z,18.11
2022-07-29T10:07:59.041Z,18.13
2022-07-29T10:08:59.038Z,18.08
2022-07-29T10:09:59.036Z,18.10
2022-07-29T10:10:59.037Z,18.11
2022-07-29T10:11:59.321Z,18.13
2022-07-29T10:13:03.016Z,18.10
2022-07-29T10:13:59.031Z,18.08
2022-07-29T10:14:59.033Z,18.05
2022-07-29T10:15:59.082Z,18.00
2022-07-29T10:16:59.028Z,18.00
2022-07-29T10:17:59.041Z,18.10
2022-07-29T10:18:59.030Z,18.05
2022-07-29T10:19:59.026Z,18.01
2022-07-29T10:20:59.026Z,17.95
2022-07-29T10:21:59.232Z,18.08
2022-07-29T10:22:59.037Z,18.10
2022-07-29T10:24:00.958Z,17.92
2022-07-29T10:24:59.016Z,17.97
2022-07-29T10:25:59.016Z,17.94
2022-07-29T10:26:59.019Z,18.05
2022-07-29T10:27:59.019Z,18.00
2022-07-29T10:28:59.014Z,18.04
2022-07-29T10:29:59.017Z,17.95
2022-07-29T10:30:59.047Z,17.94
2022-07-29T10:31:59.299Z,18.08
2022-07-29T10:32:59.007Z,18.10
2022-07-29T10:33:59.005Z,17.98
2022-07-29T10:34:59.006Z,18.01
2022-07-29T10:35:59.008Z,17.95
2022-07-29T10:36:59.005Z,18.08
2022-07-29T10:37:59.005Z,18.15
2022-07-29T10:38:58.999Z,18.13
2022-07-29T10:39:59.002Z,18.08
2022-07-29T10:40:58.998Z,18.18
2022-07-29T10:41:59.285Z,18.19
2022-07-29T10:42:58.996Z,18.23
2022-07-29T10:43:58.998Z,18.22
2022-07-29T10:44:58.992Z,18.16
2022-07-29T10:45:58.993Z,18.13
2022-07-29T10:46:59.046Z,18.25
2022-07-29T10:47:58.992Z,18.18
2022-07-29T10:48:59.028Z,18.19
2022-07-29T10:49:58.995Z,18.33
2022-07-29T10:50:58.986Z,18.34
2022-07-29T10:51:59.211Z,18.29
2022-07-29T10:52:58.984Z,18.23
2022-07-29T10:53:58.982Z,18.23
2022-07-29T10:54:58.981Z,18.29
2022-07-29T10:55:58.982Z,18.25
2022-07-29T10:56:58.977Z,18.28
2022-07-29T10:57:58.977Z,18.29
2022-07-29T10:58:58.974Z,18.33
2022-07-29T10:59:58.977Z,18.20
2022-07-29T11:00:58.973Z,18.26
2022-07-29T11:02:35.301Z,18.19
2022-07-29T11:02:59.123Z,18.10
2022-07-29T11:03:58.971Z,18.13
2022-07-29T11:04:58.971Z,18.11
2022-07-29T11:05:59.385Z,18.20
2022-07-29T11:06:58.969Z,18.20
2022-07-29T11:07:58.968Z,18.31
2022-07-29T11:08:58.962Z,18.26
2022-07-29T11:09:58.965Z,18.20
2022-07-29T11:10:58.958Z,18.25
2022-07-29T11:11:59.042Z,18.41
2022-07-29T11:12:58.956Z,18.44
2022-07-29T11:13:58.964Z,18.50
2022-07-29T11:14:58.954Z,18.58
2022-07-29T11:15:58.957Z,18.55
2022-07-29T11:16:58.953Z,18.55
2022-07-29T11:17:59.222Z,18.70
2022-07-29T11:18:58.948Z,18.80
2022-07-29T11:19:58.950Z,18.70
2022-07-29T11:20:58.947Z,18.84
2022-07-29T11:21:58.951Z,18.84
2022-07-29T11:22:58.945Z,18.99
2022-07-29T11:23:58.946Z,18.98
2022-07-29T11:24:58.944Z,18.95
2022-07-29T11:25:58.943Z,19.02
2022-07-29T11:27:00.731Z,19.07
2022-07-29T11:27:58.948Z,19.00
2022-07-29T11:28:58.941Z,19.15
2022-07-29T11:29:58.941Z,19.16
2022-07-29T11:30:58.936Z,19.29
2022-07-29T11:31:59.129Z,19.30
2022-07-29T11:32:58.945Z,19.31
2022-07-29T11:34:03.816Z,19.36
2022-07-29T11:34:58.929Z,19.36
2022-07-29T11:36:00.875Z,19.37
2022-07-29T11:36:59.052Z,19.33
2022-07-29T11:37:59.023Z,19.45
2022-07-29T11:38:58.931Z,19.49
2022-07-29T11:40:02.032Z,19.45
2022-07-29T11:40:58.924Z,19.54
2022-07-29T11:42:03.139Z,19.59
2022-07-29T11:42:58.923Z,19.62
2022-07-29T11:43:59.048Z,19.58
2022-07-29T11:44:58.921Z,19.55
2022-07-29T11:45:58.923Z,19.67
2022-07-29T11:46:58.920Z,19.70
2022-07-29T11:48:05.238Z,19.71
2022-07-29T11:48:58.978Z,19.74
2022-07-29T11:49:59.943Z,19.74
2022-07-29T11:50:58.920Z,19.70
2022-07-29T11:51:59.221Z,19.70
2022-07-29T11:52:58.913Z,19.74
2022-07-29T11:54:02.568Z,19.81
2022-07-29T11:55:00.795Z,19.82
2022-07-29T11:55:58.921Z,19.89
2022-07-29T11:56:58.911Z,19.96
2022-07-29T11:58:03.736Z,20.04
2022-07-29T11:58:58.906Z,20.06
2022-07-29T12:00:04.510Z,20.09
2022-07-29T12:00:58.903Z,20.09
2022-07-29T12:02:33.355Z,20.09
2022-07-29T12:02:58.942Z,20.22
2022-07-29T12:03:58.922Z,20.25
2022-07-29T12:04:58.900Z,20.31
2022-07-29T12:05:58.900Z,20.37
2022-07-29T12:07:00.451Z,20.39
2022-07-29T12:07:58.899Z,20.48
2022-07-29T12:08:58.902Z,20.55
2022-07-29T12:09:58.896Z,20.60
2022-07-29T12:10:58.906Z,20.60
2022-07-29T12:12:03.278Z,20.70
2022-07-29T12:12:58.897Z,20.72
2022-07-29T12:13:58.890Z,20.70
2022-07-29T12:14:58.896Z,20.70
2022-07-29T12:16:02.538Z,20.74
2022-07-29T12:16:58.914Z,20.74
2022-07-29T12:18:02.241Z,20.69
2022-07-29T12:18:59.226Z,20.75
2022-07-29T12:19:58.887Z,20.74
2022-07-29T12:20:58.882Z,20.85
2022-07-29T12:21:59.636Z,20.77
2022-07-29T12:22:58.886Z,20.85
2022-07-29T12:24:05.875Z,20.93
2022-07-29T12:25:11.442Z,20.92
2022-07-29T12:25:58.885Z,20.97
2022-07-29T12:26:58.881Z,20.90
2022-07-29T12:27:58.882Z,20.88
2022-07-29T12:28:58.876Z,20.97
2022-07-29T12:29:58.884Z,20.93
2022-07-29T12:30:58.878Z,21.05
2022-07-29T12:31:58.965Z,21.03
2022-07-29T12:32:58.872Z,21.11
2022-07-29T12:33:58.874Z,21.11
2022-07-29T12:34:58.873Z,21.12
2022-07-29T12:36:06.047Z,21.20
2022-07-29T12:36:58.875Z,21.22
2022-07-29T12:37:58.868Z,21.22
2022-07-29T12:38:59.219Z,21.18
2022-07-29T12:39:58.874Z,21.29
2022-07-29T12:40:58.868Z,21.30
2022-07-29T12:42:03.935Z,21.30
2022-07-29T12:42:58.864Z,21.32
2022-07-29T12:43:58.864Z,21.35
2022-07-29T12:44:58.862Z,21.33
2022-07-29T12:45:58.869Z,21.43
2022-07-29T12:46:58.919Z,21.33
2022-07-29T12:47:58.864Z,21.32
2022-07-29T12:48:58.892Z,21.39
2022-07-29T12:49:58.861Z,21.40
2022-07-29T12:50:58.864Z,21.52
2022-07-29T12:51:59.306Z,21.45
2022-07-29T12:52:58.855Z,21.48
2022-07-29T12:53:58.858Z,21.39